Time;durP1;ratioP1;P1;durP2;ratioP2;P2;SDS_P1;SDS_P2;PMS_P1;PMS_P2;Temp;Humidity;BMP_temperature;BMP_pressure;BME280_temperature;BME280_humidity;BME280_pressure;Samples;Min_cycle;Max_cycle;Signal;HPM_P1;HPM_P2
2021/08/05 00:02:29;;;;;;;2.80;2.00;;;18.90;78.90;;;;;;10376956;28;20224;-32
2021/08/05 00:07:52;;;;;;;1.93;1.57;;;18.90;79.00;;;;;;10385759;28;20210;-30
2021/08/05 00:13:14;;;;;;;1.90;1.60;;;18.90;78.90;;;;;;10376559;28;20215;-30
2021/08/05 00:18:36;;;;;;;1.73;1.50;;;18.90;79.00;;;;;;10381738;28;20573;-30
2021/08/05 00:24:00;;;;;;;2.20;1.90;;;18.90;79.00;;;;;;10440935;22;20628;-24
2021/08/05 00:29:22;;;;;;;2.00;1.70;;;18.90;79.00;;;;;;10431015;28;20219;-28
2021/08/05 00:34:44;;;;;;;1.60;1.50;;;18.80;78.90;;;;;;10368226;28;20218;-24
2021/08/05 00:40:08;;;;;;;2.20;2.00;;;18.80;78.90;;;;;;10396200;28;20689;-25
2021/08/05 00:45:31;;;;;;;3.50;1.80;;;18.80;78.90;;;;;;10371546;28;20218;-23
2021/08/05 00:50:53;;;;;;;1.90;1.43;;;18.70;79.00;;;;;;10373251;28;20218;-26
2021/08/05 00:56:17;;;;;;;3.20;1.90;;;18.60;79.00;;;;;;10403954;28;20194;-25
2021/08/05 01:01:46;;;;;;;2.40;1.73;;;18.60;79.00;;;;;;10374296;28;20708;-27
2021/08/05 01:07:17;;;;;;;2.77;1.60;;;18.60;78.90;;;;;;10373334;28;20712;-24
2021/08/05 01:12:45;;;;;;;3.67;1.90;;;18.50;78.70;;;;;;10374241;28;20211;-24
2021/08/05 01:18:11;;;;;;;3.33;1.80;;;18.50;78.90;;;;;;10367189;28;20237;-24
2021/08/05 01:23:39;;;;;;;3.37;1.83;;;18.50;78.70;;;;;;10358280;28;20664;-24
2021/08/05 01:29:05;;;;;;;3.03;1.80;;;18.40;78.90;;;;;;10373236;28;20197;-25
2021/08/05 01:34:28;;;;;;;2.07;1.87;;;18.40;78.80;;;;;;10372366;28;20211;-24
2021/08/05 01:39:51;;;;;;;3.10;1.97;;;18.40;78.70;;;;;;10397480;28;20193;-23
2021/08/05 01:45:17;;;;;;;1.97;1.70;;;18.30;78.70;;;;;;10409552;28;20213;-24
2021/08/05 01:50:40;;;;;;;2.47;1.60;;;18.30;78.80;;;;;;10404436;28;20214;-26
2021/08/05 01:56:02;;;;;;;3.73;1.93;;;18.20;78.80;;;;;;10371485;28;20558;-27
2021/08/05 02:01:25;;;;;;;4.20;2.30;;;18.20;78.90;;;;;;10371475;28;20231;-26
2021/08/05 02:06:56;;;;;;;2.50;1.70;;;18.20;79.10;;;;;;10376028;28;20225;-27
2021/08/05 02:12:18;;;;;;;3.33;2.00;;;18.20;79.00;;;;;;10388430;28;20226;-26
2021/08/05 02:17:43;;;;;;;3.13;1.60;;;18.10;79.00;;;;;;10408748;28;20194;-27
2021/08/05 02:23:05;;;;;;;3.53;2.00;;;18.20;79.00;;;;;;10354261;28;20230;-26
2021/08/05 02:28:29;;;;;;;2.47;1.83;;;18.20;78.80;;;;;;10373284;28;20194;-27
2021/08/05 02:33:56;;;;;;;2.40;1.67;;;18.20;78.80;;;;;;10382174;28;20214;-25
2021/08/05 02:39:18;;;;;;;3.47;2.10;;;18.30;78.30;;;;;;10393508;28;20807;-25
2021/08/05 02:44:40;;;;;;;3.33;1.70;;;18.30;78.20;;;;;;10373087;28;20230;-25
2021/08/05 02:50:05;;;;;;;2.50;1.90;;;18.30;77.90;;;;;;10367840;28;20202;-25
2021/08/05 02:55:28;;;;;;;3.20;2.00;;;18.40;78.10;;;;;;10376875;28;20548;-29
2021/08/05 03:00:50;;;;;;;2.67;1.90;;;18.30;78.30;;;;;;10379286;28;20218;-26
2021/08/05 03:06:17;;;;;;;2.57;2.10;;;18.30;78.20;;;;;;10380704;28;20229;-30
2021/08/05 03:11:39;;;;;;;2.90;1.93;;;18.30;78.20;;;;;;10415932;28;20599;-25
2021/08/05 03:17:01;;;;;;;2.47;1.77;;;18.30;78.00;;;;;;10383433;28;20199;-22
2021/08/05 03:22:25;;;;;;;5.77;2.33;;;18.30;77.80;;;;;;10399822;28;20583;-24
2021/08/05 03:27:47;;;;;;;2.27;2.00;;;18.40;77.70;;;;;;10389562;28;20225;-29
2021/08/05 03:33:09;;;;;;;2.73;1.90;;;18.30;77.50;;;;;;10412730;28;20213;-25
2021/08/05 03:38:32;;;;;;;3.80;2.00;;;18.40;77.50;;;;;;10409551;28;20206;-22
2021/08/05 03:43:54;;;;;;;3.97;1.90;;;18.30;77.40;;;;;;10374483;28;20226;-22
2021/08/05 03:49:16;;;;;;;4.23;2.00;;;18.30;77.50;;;;;;10407038;28;20200;-25
2021/08/05 03:54:40;;;;;;;2.00;1.77;;;18.30;77.40;;;;;;10413807;28;20222;-28
2021/08/05 04:00:02;;;;;;;2.67;2.00;;;18.30;77.40;;;;;;10373584;28;20198;-22
2021/08/05 04:05:24;;;;;;;5.33;2.20;;;18.30;77.40;;;;;;10385829;28;20214;-30
2021/08/05 04:10:47;;;;;;;5.37;2.17;;;18.30;77.40;;;;;;10397627;28;20297;-27
2021/08/05 04:16:10;;;;;;;2.73;1.83;;;18.30;77.20;;;;;;10389008;28;20190;-28
2021/08/05 04:21:32;;;;;;;1.90;1.80;;;18.30;77.30;;;;;;10400004;28;20645;-24
2021/08/05 04:26:55;;;;;;;3.27;2.13;;;18.30;77.20;;;;;;10372696;28;20214;-23
2021/08/05 04:32:17;;;;;;;3.97;1.80;;;18.30;77.30;;;;;;10384918;28;20218;-28
2021/08/05 04:37:51;;;;;;;3.30;2.23;;;18.30;77.20;;;;;;10396266;28;20193;-25
2021/08/05 04:43:15;;;;;;;2.47;1.90;;;18.30;77.70;;;;;;10389806;28;20740;-24
2021/08/05 04:48:37;;;;;;;1.60;1.50;;;18.30;77.10;;;;;;10390189;28;20186;-25
2021/08/05 04:54:00;;;;;;;3.07;1.83;;;18.20;77.20;;;;;;10390270;28;20215;-25
2021/08/05 04:59:23;;;;;;;2.80;2.03;;;18.20;77.00;;;;;;10388031;28;20240;-26
2021/08/05 05:04:45;;;;;;;4.23;2.30;;;18.30;76.80;;;;;;10390996;28;20218;-26
2021/08/05 05:10:09;;;;;;;2.70;1.90;;;18.30;76.80;;;;;;10391040;28;20208;-24
2021/08/05 05:15:32;;;;;;;4.03;1.83;;;18.30;76.50;;;;;;10386294;28;20575;-26
2021/08/05 05:20:55;;;;;;;3.13;1.87;;;18.30;76.30;;;;;;10380505;28;20566;-22
2021/08/05 05:26:18;;;;;;;2.17;1.70;;;18.30;76.10;;;;;;10389194;28;20215;-25
2021/08/05 05:31:41;;;;;;;3.57;2.00;;;18.30;76.00;;;;;;10385916;28;20728;-27
2021/08/05 05:37:04;;;;;;;7.50;1.93;;;18.30;76.00;;;;;;10387796;28;20194;-23
2021/08/05 05:42:26;;;;;;;3.30;2.10;;;18.30;76.10;;;;;;10390137;28;20229;-26
2021/08/05 05:47:50;;;;;;;3.43;2.33;;;18.30;76.20;;;;;;10386746;28;20216;-23
2021/08/05 05:53:12;;;;;;;3.23;1.90;;;18.30;76.30;;;;;;10387061;28;20720;-27
2021/08/05 05:58:34;;;;;;;2.37;1.80;;;18.30;76.20;;;;;;10380599;28;20206;-27
2021/08/05 06:03:57;;;;;;;2.37;1.97;;;18.40;76.40;;;;;;10382796;28;20229;-24
2021/08/05 06:09:20;;;;;;;4.20;2.30;;;18.40;76.40;;;;;;10406731;28;20573;-26
2021/08/05 06:14:42;;;;;;;4.43;2.20;;;18.40;76.40;;;;;;10382240;28;20727;-27
2021/08/05 06:20:07;;;;;;;5.37;2.17;;;18.50;76.40;;;;;;10365623;28;20689;-23
2021/08/05 06:25:30;;;;;;;2.27;1.93;;;18.50;76.20;;;;;;10435048;22;20224;-29
2021/08/05 06:30:52;;;;;;;3.23;2.40;;;18.60;76.20;;;;;;10458873;28;20202;-33
2021/08/05 06:36:15;;;;;;;4.13;2.30;;;18.60;75.70;;;;;;10429249;28;20194;-30
2021/08/05 06:41:37;;;;;;;2.90;2.17;;;18.60;76.40;;;;;;10409966;28;20217;-30
2021/08/05 06:47:02;;;;;;;3.23;1.87;;;18.60;76.20;;;;;;10422209;28;20210;-30
2021/08/05 06:52:25;;;;;;;3.30;2.20;;;18.70;76.10;;;;;;10417137;28;20210;-32
2021/08/05 06:57:47;;;;;;;3.13;2.30;;;18.70;75.80;;;;;;10389867;28;20201;-30
2021/08/05 07:03:09;;;;;;;6.13;2.67;;;18.80;75.90;;;;;;10416481;28;20214;-31
2021/08/05 07:08:34;;;;;;;6.70;2.10;;;18.80;75.80;;;;;;10401040;28;20219;-31
2021/08/05 07:13:56;;;;;;;6.07;2.90;;;18.80;75.80;;;;;;10383035;28;20226;-31
2021/08/05 07:19:18;;;;;;;2.57;2.20;;;18.90;76.00;;;;;;10410927;28;20197;-31
2021/08/05 07:24:42;;;;;;;3.90;2.47;;;18.90;75.80;;;;;;10419836;28;20701;-31
2021/08/05 07:30:05;;;;;;;4.97;2.50;;;19.00;75.90;;;;;;10399343;28;20217;-30
2021/08/05 07:35:27;;;;;;;3.63;2.50;;;19.00;75.90;;;;;;10413355;28;20632;-32
2021/08/05 07:40:51;;;;;;;3.93;2.30;;;19.10;75.60;;;;;;10397755;28;20198;-29
2021/08/05 07:46:14;;;;;;;2.23;1.90;;;19.10;75.60;;;;;;10419310;28;20221;-30
2021/08/05 07:51:36;;;;;;;2.17;1.80;;;19.20;75.90;;;;;;10418109;28;20289;-30
2021/08/05 07:56:59;;;;;;;3.77;1.93;;;19.30;76.00;;;;;;10389473;28;20201;-31
2021/08/05 08:02:21;;;;;;;2.80;1.87;;;19.30;76.10;;;;;;10375824;28;20229;-32
2021/08/05 08:07:45;;;;;;;2.90;1.87;;;19.40;76.30;;;;;;10414684;28;20584;-32
2021/08/05 08:13:08;;;;;;;2.33;1.67;;;19.50;76.30;;;;;;10377319;28;20214;-30
2021/08/05 08:18:30;;;;;;;3.77;1.80;;;19.50;76.30;;;;;;10388265;28;20202;-30
2021/08/05 08:23:52;;;;;;;3.27;2.10;;;19.60;76.30;;;;;;10374856;28;20230;-32
2021/08/05 08:29:16;;;;;;;5.60;2.10;;;19.60;76.30;;;;;;10383152;28;20198;-31
2021/08/05 08:34:38;;;;;;;3.40;2.53;;;19.60;75.90;;;;;;10415218;28;20214;-30
2021/08/05 08:40:00;;;;;;;3.00;2.70;;;19.60;75.70;;;;;;10409473;28;20205;-30
2021/08/05 08:45:24;;;;;;;4.40;3.07;;;19.60;76.10;;;;;;10408264;28;20226;-31
2021/08/05 08:50:47;;;;;;;5.37;3.53;;;19.60;76.40;;;;;;10403033;28;20194;-30
2021/08/05 08:56:09;;;;;;;4.37;3.40;;;19.60;76.60;;;;;;10392119;28;20202;-28
2021/08/05 09:01:39;;;;;;;4.10;3.30;;;19.60;76.80;;;;;;10398831;28;20290;-28
2021/08/05 09:07:01;;;;;;;4.23;3.03;;;19.60;76.90;;;;;;10397925;28;20210;-31
2021/08/05 09:12:23;;;;;;;5.50;3.20;;;19.70;77.00;;;;;;10401985;28;20696;-30
2021/08/05 09:17:46;;;;;;;4.53;3.00;;;19.70;77.10;;;;;;10391211;28;20221;-31
2021/08/05 09:23:16;;;;;;;3.70;2.90;;;19.70;77.00;;;;;;10530328;27;20569;-33
2021/08/05 09:28:39;;;;;;;5.53;2.90;;;19.70;76.90;;;;;;10467237;28;20687;-37
2021/08/05 09:34:03;;;;;;;3.37;2.93;;;19.70;77.00;;;;;;10446214;28;20220;-37
2021/08/05 09:39:28;;;;;;;3.83;3.13;;;19.70;77.00;;;;;;10444397;28;20229;-37
2021/08/05 09:44:52;;;;;;;5.77;3.03;;;19.70;76.90;;;;;;10524881;28;20211;-36
2021/08/05 09:50:24;;;;;;;3.77;2.83;;;19.70;77.20;;;;;;10522281;28;20326;-36
2021/08/05 09:55:48;;;;;;;6.70;3.10;;;19.70;76.70;;;;;;10528406;28;20226;-33
2021/08/05 10:01:10;;;;;;;5.87;2.67;;;19.70;77.30;;;;;;10552494;28;20215;-36
2021/08/05 10:06:52;;;;;;;6.73;3.17;;;19.70;77.20;;;;;;10542601;28;20679;-35
2021/08/05 10:12:21;;;;;;;3.30;2.67;;;19.70;77.20;;;;;;10527420;28;20579;-33
2021/08/05 10:17:44;;;;;;;5.20;2.90;;;19.70;77.20;;;;;;10525787;28;20746;-33
2021/08/05 10:23:06;;;;;;;4.87;2.90;;;19.70;77.40;;;;;;10518137;28;20251;-33
2021/08/05 10:28:31;;;;;;;3.80;3.37;;;19.70;77.50;;;;;;10526337;28;20204;-33
2021/08/05 10:33:53;;;;;;;3.67;3.23;;;19.80;77.10;;;;;;10465412;28;20291;-33
2021/08/05 10:39:16;;;;;;;3.73;3.07;;;19.70;77.10;;;;;;10507400;28;20227;-34
2021/08/05 10:44:40;;;;;;;4.10;2.97;;;19.80;77.10;;;;;;10502436;28;20724;-36
2021/08/05 10:50:09;;;;;;;3.63;3.00;;;19.80;77.30;;;;;;10470234;28;20797;-34
2021/08/05 10:55:33;;;;;;;6.97;3.07;;;19.80;77.30;;;;;;10490961;28;20244;-35
2021/08/05 11:01:04;;;;;;;6.00;3.07;;;19.80;77.30;;;;;;10494919;28;20335;-37
2021/08/05 11:06:31;;;;;;;8.37;3.63;;;19.80;77.60;;;;;;10480256;28;20193;-34
2021/08/05 11:11:54;;;;;;;7.80;4.23;;;19.80;77.50;;;;;;10495092;28;20219;-34
2021/08/05 11:17:17;;;;;;;6.03;3.43;;;19.80;77.20;;;;;;10495057;28;20579;-32
2021/08/05 11:22:42;;;;;;;3.40;3.10;;;19.80;77.00;;;;;;10520055;28;20220;-36
2021/08/05 11:28:23;;;;;;;4.33;2.77;;;19.80;77.80;;;;;;10499728;28;20619;-34
2021/08/05 11:33:56;;;;;;;4.73;3.03;;;19.90;77.20;;;;;;10495512;28;20225;-37
2021/08/05 11:39:27;;;;;;;4.53;2.93;;;19.90;77.60;;;;;;10495749;28;20231;-36
2021/08/05 11:44:52;;;;;;;3.70;2.87;;;19.90;77.60;;;;;;10493917;28;20212;-33
2021/08/05 11:50:23;;;;;;;3.47;3.00;;;19.90;77.60;;;;;;10477848;28;20581;-32
2021/08/05 11:55:47;;;;;;;4.23;3.20;;;19.90;77.50;;;;;;10463394;28;20212;-34
2021/08/05 12:01:13;;;;;;;6.03;2.77;;;19.90;77.40;;;;;;10513620;28;20227;-33
2021/08/05 12:06:36;;;;;;;6.20;3.17;;;19.90;77.60;;;;;;10495135;28;20275;-33
2021/08/05 12:11:59;;;;;;;2.97;2.67;;;19.90;77.40;;;;;;10494605;28;20214;-34
2021/08/05 12:17:37;;;;;;;5.57;3.00;;;19.90;77.20;;;;;;10493940;28;20699;-33
2021/08/05 12:23:03;;;;;;;3.00;2.60;;;19.90;77.20;;;;;;10494964;28;20216;-34
2021/08/05 12:28:26;;;;;;;10.97;3.17;;;19.90;77.50;;;;;;10472094;28;20196;-36
2021/08/05 12:33:49;;;;;;;17.50;3.53;;;20.00;77.70;;;;;;10485776;28;20228;-34
2021/08/05 12:39:13;;;;;;;18.37;4.00;;;19.90;77.60;;;;;;10491234;28;20275;-34
2021/08/05 12:44:36;;;;;;;13.23;3.50;;;19.90;77.50;;;;;;10461256;22;20245;-22
2021/08/05 12:50:04;;;;;;;10.70;3.90;;;19.90;77.50;;;;;;10369306;28;20202;-22
2021/08/05 12:55:28;;;;;;;10.50;4.17;;;19.90;77.70;;;;;;10369340;28;20290;-23
2021/08/05 13:00:51;;;;;;;6.13;3.37;;;19.90;77.60;;;;;;10370049;28;20221;-24
2021/08/05 13:06:14;;;;;;;5.17;3.63;;;19.90;78.00;;;;;;10369708;28;20217;-22
2021/08/05 13:11:39;;;;;;;5.60;3.20;;;19.90;78.30;;;;;;10360425;28;20194;-23
2021/08/05 13:17:09;;;;;;;5.60;3.40;;;20.00;78.40;;;;;;10369549;28;20300;-23
2021/08/05 13:22:36;;;;;;;4.57;3.47;;;20.00;78.60;;;;;;10369666;28;20224;-23
2021/08/05 13:28:11;;;;;;;5.90;3.03;;;20.00;78.60;;;;;;10368709;28;20209;-22
2021/08/05 13:33:33;;;;;;;5.47;2.97;;;20.00;78.50;;;;;;10368327;28;20241;-22
2021/08/05 13:38:55;;;;;;;6.27;3.50;;;20.00;78.50;;;;;;10369513;28;20202;-23
2021/08/05 13:44:19;;;;;;;6.23;3.90;;;20.00;79.00;;;;;;10369063;28;20721;-22
2021/08/05 13:49:41;;;;;;;7.63;3.53;;;20.00;78.40;;;;;;10359453;28;20685;-23
2021/08/05 13:55:03;;;;;;;6.57;3.13;;;20.00;78.60;;;;;;10368083;28;20225;-21
2021/08/05 14:00:28;;;;;;;5.23;2.83;;;20.00;78.40;;;;;;10367604;28;20223;-24
2021/08/05 14:05:50;;;;;;;6.07;2.77;;;20.10;78.00;;;;;;10369500;28;20222;-22
2021/08/05 14:11:12;;;;;;;4.13;2.80;;;20.10;78.00;;;;;;10376521;28;20662;-22
2021/08/05 14:16:36;;;;;;;4.80;2.50;;;20.10;78.20;;;;;;10375306;28;20575;-25
2021/08/05 14:21:58;;;;;;;3.43;2.63;;;20.10;78.20;;;;;;10367917;28;20230;-22
2021/08/05 14:27:20;;;;;;;7.07;2.73;;;20.20;78.30;;;;;;10349451;28;20199;-22
2021/08/05 14:32:44;;;;;;;4.10;2.67;;;20.20;78.40;;;;;;10373060;28;20633;-24
2021/08/05 14:38:06;;;;;;;5.00;2.67;;;20.20;78.40;;;;;;10329212;28;20563;-23
2021/08/05 14:43:28;;;;;;;3.00;2.50;;;20.20;78.60;;;;;;10354056;28;20246;-24
2021/08/05 14:48:51;;;;;;;3.00;2.70;;;20.20;78.70;;;;;;10369015;28;20213;-24
2021/08/05 14:54:14;;;;;;;2.70;2.50;;;20.20;78.80;;;;;;10368910;28;20222;-23
2021/08/05 14:59:36;;;;;;;3.00;2.67;;;20.20;79.00;;;;;;10367469;28;20217;-23
2021/08/05 15:05:00;;;;;;;4.43;2.50;;;20.20;79.00;;;;;;10368841;28;20215;-23
2021/08/05 15:10:22;;;;;;;2.40;2.20;;;20.20;79.10;;;;;;10341543;28;20570;-23
2021/08/05 15:15:45;;;;;;;3.53;2.70;;;20.20;79.10;;;;;;10332022;28;20757;-23
2021/08/05 15:21:08;;;;;;;3.50;2.43;;;20.20;79.00;;;;;;10365947;28;20712;-22
2021/08/05 15:26:30;;;;;;;2.30;2.10;;;20.20;79.00;;;;;;10372237;28;20301;-22
2021/08/05 15:31:52;;;;;;;3.33;2.33;;;20.20;78.80;;;;;;10367126;28;20673;-23
2021/08/05 15:37:16;;;;;;;3.50;2.37;;;20.20;78.70;;;;;;10365195;28;20202;-24
2021/08/05 15:42:38;;;;;;;2.93;2.27;;;20.20;78.60;;;;;;10366743;28;20230;-24
2021/08/05 15:48:00;;;;;;;2.60;2.30;;;20.20;78.60;;;;;;10364054;28;20203;-22
2021/08/05 15:53:23;;;;;;;2.80;2.30;;;20.20;78.80;;;;;;10366738;28;20241;-23
2021/08/05 15:58:46;;;;;;;5.20;2.90;;;20.20;79.00;;;;;;10366149;28;20582;-23
2021/08/05 16:04:08;;;;;;;2.77;2.57;;;20.10;79.00;;;;;;10365923;28;20233;-24
2021/08/05 16:09:31;;;;;;;2.80;2.60;;;20.10;79.00;;;;;;10363050;28;20206;-22
2021/08/05 16:14:53;;;;;;;3.40;2.40;;;20.10;79.00;;;;;;10365146;28;20221;-24
2021/08/05 16:20:16;;;;;;;2.57;2.37;;;20.10;78.90;;;;;;10364773;28;20214;-24
2021/08/05 16:25:40;;;;;;;3.50;2.50;;;20.10;78.90;;;;;;10365765;28;20543;-22
2021/08/05 16:31:02;;;;;;;4.60;2.40;;;20.10;79.40;;;;;;10363648;28;20190;-24
2021/08/05 16:36:24;;;;;;;2.60;2.40;;;20.10;78.70;;;;;;10343296;28;20222;-23
2021/08/05 16:41:47;;;;;;;2.37;2.03;;;20.10;78.70;;;;;;10360640;28;20709;-23
2021/08/05 16:47:10;;;;;;;2.70;2.37;;;20.00;78.60;;;;;;10372597;28;20231;-22
2021/08/05 16:52:34;;;;;;;2.77;2.30;;;20.00;78.70;;;;;;10369938;28;20874;-21
2021/08/05 16:57:57;;;;;;;3.33;2.60;;;20.00;78.60;;;;;;10371882;28;20633;-23
2021/08/05 17:03:20;;;;;;;3.47;2.40;;;20.10;78.70;;;;;;10363352;28;20669;-22
2021/08/05 17:08:42;;;;;;;2.80;2.50;;;20.00;78.60;;;;;;10366819;28;20207;-24
2021/08/05 17:14:05;;;;;;;2.67;2.30;;;20.00;78.60;;;;;;10365678;28;20696;-23
2021/08/05 17:19:28;;;;;;;3.33;2.60;;;20.00;78.80;;;;;;10366227;28;20198;-24
2021/08/05 17:24:50;;;;;;;3.73;2.47;;;20.00;78.90;;;;;;10369905;28;20301;-23
2021/08/05 17:30:14;;;;;;;2.50;2.30;;;20.00;78.90;;;;;;10362358;28;20553;-22
2021/08/05 17:35:36;;;;;;;2.73;2.30;;;20.00;78.90;;;;;;10364511;28;20720;-25
2021/08/05 17:40:58;;;;;;;2.43;2.23;;;20.00;78.90;;;;;;10365243;28;20603;-22
2021/08/05 17:46:21;;;;;;;4.83;2.80;;;20.00;78.80;;;;;;10372436;28;20229;-23
2021/08/05 17:51:44;;;;;;;6.97;2.33;;;20.00;79.50;;;;;;10372001;28;20396;-24
2021/08/05 17:57:08;;;;;;;31.40;3.80;;;20.00;79.10;;;;;;10371141;28;20230;-23
2021/08/05 18:02:32;;;;;;;6.47;2.73;;;20.00;78.80;;;;;;10374932;28;20229;-24
2021/08/05 18:07:54;;;;;;;6.20;2.30;;;20.00;78.80;;;;;;10374161;28;20194;-23
2021/08/05 18:13:16;;;;;;;7.70;3.03;;;20.00;78.80;;;;;;10367688;28;20210;-21
2021/08/05 18:18:39;;;;;;;5.87;2.70;;;20.00;78.80;;;;;;10332488;28;20210;-26
2021/08/05 18:24:02;;;;;;;9.07;2.87;;;20.00;78.90;;;;;;10352563;28;20462;-22
2021/08/05 18:29:24;;;;;;;4.73;2.50;;;20.00;79.30;;;;;;10354474;28;20206;-23
2021/08/05 18:34:47;;;;;;;5.13;2.40;;;20.00;79.50;;;;;;10368665;28;20214;-23
2021/08/05 18:40:11;;;;;;;8.83;2.67;;;20.00;79.10;;;;;;10368991;28;20206;-25
2021/08/05 18:45:33;;;;;;;2.50;2.20;;;20.00;79.10;;;;;;10373403;28;20516;-22
2021/08/05 18:50:56;;;;;;;5.43;2.30;;;20.00;79.10;;;;;;10370055;28;20206;-23
2021/08/05 18:56:19;;;;;;;4.20;2.80;;;20.00;79.10;;;;;;10357926;28;20756;-23
2021/08/05 19:01:41;;;;;;;3.77;2.00;;;20.00;79.10;;;;;;10368096;28;20222;-23
2021/08/05 19:07:05;;;;;;;5.07;2.20;;;20.00;79.10;;;;;;10342550;28;20259;-24
2021/08/05 19:12:28;;;;;;;4.70;2.50;;;20.00;79.10;;;;;;10348692;28;20697;-22
2021/08/05 19:17:51;;;;;;;5.07;2.20;;;19.90;79.00;;;;;;10367206;28;20205;-22
2021/08/05 19:23:14;;;;;;;3.90;2.57;;;20.00;79.10;;;;;;10366693;28;20249;-23
2021/08/05 19:28:36;;;;;;;2.47;2.20;;;20.00;79.10;;;;;;10366218;28;20194;-24
2021/08/05 19:33:58;;;;;;;3.03;2.40;;;19.90;79.00;;;;;;10367287;28;20218;-23
2021/08/05 19:39:22;;;;;;;4.23;2.27;;;20.00;79.10;;;;;;10371148;28;20206;-22
2021/08/05 19:44:44;;;;;;;3.73;2.30;;;19.90;79.00;;;;;;10373362;28;20221;-22
2021/08/05 19:50:09;;;;;;;3.30;2.20;;;20.00;79.00;;;;;;10372631;28;20209;-22
2021/08/05 19:55:32;;;;;;;2.47;2.27;;;19.90;79.00;;;;;;10372357;28;20233;-22
2021/08/05 20:00:54;;;;;;;3.63;1.93;;;19.90;78.90;;;;;;10372647;28;20222;-23
2021/08/05 20:06:16;;;;;;;2.30;2.10;;;19.90;78.90;;;;;;10371422;28;20289;-23
2021/08/05 20:11:40;;;;;;;3.03;2.20;;;19.90;78.90;;;;;;10371550;28;20191;-23
2021/08/05 20:17:02;;;;;;;2.20;1.97;;;19.90;78.90;;;;;;10372492;28;20701;-22
2021/08/05 20:22:24;;;;;;;2.30;2.10;;;19.90;78.90;;;;;;10409854;23;20644;-28
2021/08/05 20:27:47;;;;;;;4.23;2.20;;;20.00;79.00;;;;;;10363739;28;20574;-30
2021/08/05 20:33:11;;;;;;;2.07;1.87;;;19.90;78.90;;;;;;10358499;28;20210;-28
2021/08/05 20:38:33;;;;;;;2.13;1.93;;;19.90;78.90;;;;;;10347308;28;20198;-29
2021/08/05 20:43:56;;;;;;;3.07;1.70;;;19.90;78.90;;;;;;10372070;28;20230;-30
2021/08/05 20:49:18;;;;;;;2.53;2.17;;;19.90;78.90;;;;;;10351462;28;20206;-27
2021/08/05 20:54:40;;;;;;;2.73;1.80;;;19.90;78.90;;;;;;10348641;28;20218;-29
2021/08/05 21:00:05;;;;;;;2.00;1.90;;;19.90;78.90;;;;;;10370022;28;20195;-29
2021/08/05 21:05:27;;;;;;;3.57;1.97;;;19.90;78.90;;;;;;10374108;28;20567;-29
2021/08/05 21:10:50;;;;;;;2.27;2.00;;;19.90;78.90;;;;;;10350602;28;20226;-29
2021/08/05 21:16:13;;;;;;;2.40;2.13;;;19.90;78.90;;;;;;10349862;28;20206;-30
2021/08/05 21:21:35;;;;;;;1.90;1.70;;;19.90;78.90;;;;;;10363987;28;20226;-29
2021/08/05 21:26:57;;;;;;;2.00;1.90;;;19.90;78.90;;;;;;10354050;28;20198;-29
2021/08/05 21:32:21;;;;;;;2.10;1.90;;;19.90;78.80;;;;;;10373124;28;20210;-31
2021/08/05 21:37:43;;;;;;;2.83;2.10;;;19.90;78.80;;;;;;10373642;28;20696;-29
2021/08/05 21:43:05;;;;;;;2.13;1.93;;;19.90;78.80;;;;;;10375902;28;20222;-30
2021/08/05 21:48:29;;;;;;;2.03;1.80;;;19.90;78.80;;;;;;10376858;28;20194;-30
2021/08/05 21:53:51;;;;;;;2.30;2.10;;;19.90;78.80;;;;;;10376130;28;20222;-30
2021/08/05 21:59:13;;;;;;;2.17;1.77;;;19.90;78.90;;;;;;10374095;28;20261;-32
2021/08/05 22:04:36;;;;;;;2.10;1.90;;;19.90;78.80;;;;;;10367700;28;20644;-29
2021/08/05 22:09:58;;;;;;;2.33;2.13;;;19.90;78.80;;;;;;10376087;28;20547;-29
2021/08/05 22:15:20;;;;;;;2.00;1.90;;;19.90;78.80;;;;;;10366932;28;20579;-29
2021/08/05 22:20:44;;;;;;;1.93;1.83;;;19.90;78.80;;;;;;10373202;28;20233;-31
2021/08/05 22:26:06;;;;;;;1.93;1.70;;;19.90;78.80;;;;;;10336369;28;20206;-29
2021/08/05 22:31:28;;;;;;;1.90;1.80;;;19.90;78.70;;;;;;10376912;28;20217;-29
2021/08/05 22:36:52;;;;;;;2.10;2.00;;;19.90;78.80;;;;;;10384002;28;20202;-31
2021/08/05 22:42:14;;;;;;;1.73;1.60;;;19.90;78.70;;;;;;10381442;28;20223;-32
2021/08/05 22:47:36;;;;;;;1.80;1.70;;;19.90;78.70;;;;;;10350060;28;20683;-31
2021/08/05 22:53:00;;;;;;;2.00;1.90;;;19.90;78.70;;;;;;10341992;28;20215;-29
2021/08/05 22:58:22;;;;;;;1.93;1.80;;;19.90;78.80;;;;;;10344193;28;20199;-29
2021/08/05 23:03:44;;;;;;;1.70;1.57;;;19.90;78.70;;;;;;10342091;28;20301;-30
2021/08/05 23:09:08;;;;;;;2.13;1.93;;;19.90;78.80;;;;;;10343598;28;20278;-31
2021/08/05 23:14:30;;;;;;;1.77;1.67;;;19.90;78.80;;;;;;10354048;28;20222;-32
2021/08/05 23:19:52;;;;;;;1.80;1.70;;;19.90;78.70;;;;;;10382454;28;20198;-31
2021/08/05 23:25:17;;;;;;;2.90;2.00;;;19.90;78.70;;;;;;10341110;28;20709;-30
2021/08/05 23:30:39;;;;;;;1.90;1.80;;;19.90;79.20;;;;;;10347037;28;20233;-30
2021/08/05 23:36:01;;;;;;;1.93;1.83;;;19.90;78.60;;;;;;10361699;28;20241;-31
2021/08/05 23:41:25;;;;;;;2.10;1.60;;;19.90;78.60;;;;;;10347472;28;20211;-30
2021/08/05 23:46:47;;;;;;;1.93;1.83;;;19.90;78.70;;;;;;10341803;28;20198;-27
2021/08/05 23:52:09;;;;;;;2.03;1.93;;;19.90;78.60;;;;;;10360728;28;20221;-29
2021/08/05 23:57:32;;;;;;;2.40;2.20;;;19.90;78.60;;;;;;10377723;28;20558;-29
